createdAt,value
2019-05-22T00:00:29.342Z,30.50
2019-05-22T00:03:00.727Z,28.70
2019-05-22T00:05:34.155Z,29.50
2019-05-22T00:08:08.923Z,28.30
2019-05-22T00:10:39.396Z,29.00
2019-05-22T00:13:10.417Z,27.23
2019-05-22T00:15:39.837Z,25.57
2019-05-22T00:18:10.300Z,27.40
2019-05-22T00:20:39.279Z,32.77
2019-05-22T00:23:09.888Z,26.10
2019-05-22T00:25:38.947Z,26.23
2019-05-22T00:28:08.240Z,22.57
2019-05-22T00:30:42.013Z,23.53
2019-05-22T00:33:12.039Z,23.23
2019-05-22T00:35:42.399Z,21.57
2019-05-22T00:38:11.762Z,20.30
2019-05-22T00:40:44.693Z,19.37
2019-05-22T00:43:17.152Z,17.33
2019-05-22T00:45:48.820Z,17.63
2019-05-22T00:48:20.766Z,16.40
2019-05-22T00:51:04.363Z,16.37
2019-05-22T00:53:50.731Z,16.03
2019-05-22T00:56:33.659Z,15.70
2019-05-22T00:59:13.110Z,16.63
2019-05-22T01:01:45.934Z,16.40
2019-05-22T01:04:16.441Z,18.67
2019-05-22T01:06:47.341Z,19.30
2019-05-22T01:09:20.393Z,19.20
2019-05-22T01:11:49.791Z,18.93
2019-05-22T01:14:20.176Z,20.50
2019-05-22T01:16:49.636Z,19.80
2019-05-22T01:19:19.278Z,17.07
2019-05-22T01:21:50.497Z,17.67
2019-05-22T01:24:19.933Z,16.07
2019-05-22T01:26:50.448Z,14.90
2019-05-22T01:29:20.036Z,14.50
2019-05-22T01:31:53.053Z,13.87
2019-05-22T01:34:24.849Z,14.83
2019-05-22T01:36:55.217Z,13.80
2019-05-22T01:39:28.551Z,13.20
2019-05-22T01:41:58.580Z,12.23
2019-05-22T01:44:28.314Z,11.43
2019-05-22T01:47:00.432Z,12.20
2019-05-22T01:49:30.868Z,11.40
2019-05-22T01:51:59.687Z,11.80
2019-05-22T01:54:30.331Z,12.50
2019-05-22T01:57:07.130Z,12.10
2019-05-22T01:59:36.803Z,11.40
2019-05-22T02:02:08.734Z,14.20
2019-05-22T02:04:38.660Z,13.40
2019-05-22T02:07:09.539Z,12.87
2019-05-22T02:09:40.678Z,13.73
2019-05-22T02:12:18.407Z,12.03
2019-05-22T02:14:50.421Z,8.97
2019-05-22T02:17:22.400Z,8.53
2019-05-22T02:19:52.028Z,8.20
2019-05-22T02:22:20.624Z,7.93
2019-05-22T02:24:50.134Z,8.90
2019-05-22T02:27:19.743Z,8.20
2019-05-22T02:29:49.371Z,8.77
2019-05-22T02:32:20.910Z,7.97
2019-05-22T02:34:50.195Z,8.53
2019-05-22T02:37:20.525Z,7.47
2019-05-22T02:39:50.368Z,8.60
2019-05-22T02:42:25.889Z,8.50
2019-05-22T02:44:55.531Z,8.47
2019-05-22T02:47:25.780Z,8.50
2019-05-22T02:49:55.933Z,8.97
2019-05-22T02:52:25.297Z,9.23
2019-05-22T02:54:54.074Z,9.10
2019-05-22T02:57:23.132Z,9.33
2019-05-22T02:59:52.259Z,9.07
2019-05-22T03:02:20.868Z,9.10
2019-05-22T03:04:56.252Z,10.67
2019-05-22T03:07:25.777Z,10.30
2019-05-22T03:09:55.268Z,9.07
2019-05-22T03:12:26.880Z,10.17
2019-05-22T03:14:55.585Z,9.23
2019-05-22T03:17:30.691Z,10.33
2019-05-22T03:20:03.645Z,10.30
2019-05-22T03:23:07.054Z,9.33
2019-05-22T03:25:36.273Z,10.17
2019-05-22T03:28:05.894Z,11.77
2019-05-22T03:30:38.174Z,10.73
2019-05-22T03:33:08.252Z,11.63
2019-05-22T03:35:49.543Z,11.23
2019-05-22T03:38:20.609Z,11.43
2019-05-22T03:40:52.112Z,10.77
2019-05-22T03:43:28.183Z,10.30
2019-05-22T03:45:59.077Z,10.43
2019-05-22T03:48:30.873Z,10.20
2019-05-22T03:51:08.622Z,11.30
2019-05-22T03:53:37.692Z,9.57
2019-05-22T03:56:06.302Z,9.93
2019-05-22T03:58:35.336Z,12.23
2019-05-22T04:01:06.578Z,11.40
2019-05-22T04:03:35.913Z,11.07
2019-05-22T04:06:06.318Z,10.87
2019-05-22T04:08:35.310Z,11.23
2019-05-22T04:11:05.420Z,12.87
2019-05-22T04:13:34.415Z,12.23
2019-05-22T04:16:06.394Z,11.43
2019-05-22T04:18:35.906Z,11.60
2019-05-22T04:21:05.881Z,9.33
2019-05-22T04:23:35.290Z,10.00
2019-05-22T04:26:06.116Z,10.43
2019-05-22T04:28:37.264Z,10.10
2019-05-22T04:31:07.318Z,11.07
2019-05-22T04:33:36.164Z,9.97
2019-05-22T04:36:10.184Z,8.47
2019-05-22T04:38:37.905Z,8.90
2019-05-22T04:41:08.852Z,9.57
2019-05-22T04:43:37.843Z,9.43
2019-05-22T04:46:08.276Z,9.50
2019-05-22T04:48:38.110Z,8.80
2019-05-22T04:51:26.101Z,10.20
2019-05-22T04:53:56.261Z,8.27
2019-05-22T04:56:26.046Z,8.60
2019-05-22T04:58:55.850Z,9.70
2019-05-22T05:01:25.469Z,8.83
2019-05-22T05:03:54.353Z,8.97
2019-05-22T05:06:24.011Z,8.53
2019-05-22T05:08:52.856Z,8.60
2019-05-22T05:11:21.754Z,8.00
2019-05-22T05:13:50.548Z,7.03
2019-05-22T05:16:19.230Z,7.00
2019-05-22T05:18:48.135Z,9.20
2019-05-22T05:21:16.853Z,7.30
2019-05-22T05:23:45.597Z,6.60
2019-05-22T05:26:14.371Z,7.07
2019-05-22T05:28:43.628Z,6.43
2019-05-22T05:31:12.243Z,6.60
2019-05-22T05:34:03.963Z,6.17
2019-05-22T05:36:33.013Z,5.73
2019-05-22T05:39:01.693Z,6.53
2019-05-22T05:41:30.958Z,7.20
2019-05-22T05:44:00.401Z,6.70
2019-05-22T05:46:29.081Z,6.47
2019-05-22T05:48:58.165Z,6.90
2019-05-22T05:51:27.809Z,7.00
2019-05-22T05:53:59.762Z,6.00
2019-05-22T05:56:31.945Z,6.17
2019-05-22T05:59:03.008Z,6.93
2019-05-22T06:01:33.784Z,7.57
2019-05-22T06:04:03.916Z,7.30
2019-05-22T06:06:36.280Z,6.80
2019-05-22T06:09:08.369Z,7.23
2019-05-22T06:11:52.812Z,8.77
2019-05-22T06:14:36.103Z,7.03
2019-05-22T06:17:11.961Z,7.40
2019-05-22T06:19:49.753Z,7.33
2019-05-22T06:22:19.857Z,8.37
2019-05-22T06:24:52.016Z,7.90
2019-05-22T06:27:25.798Z,8.40
2019-05-22T06:29:57.642Z,7.80
2019-05-22T06:32:49.321Z,8.87
2019-05-22T06:35:18.936Z,9.00
2019-05-22T06:38:16.818Z,9.80
2019-05-22T06:40:45.933Z,8.80
2019-05-22T06:43:29.450Z,8.17
2019-05-22T06:45:58.380Z,8.40
2019-05-22T06:48:27.533Z,9.93
2019-05-22T06:50:57.531Z,8.20
2019-05-22T06:53:26.394Z,7.93
2019-05-22T06:55:55.085Z,8.10
2019-05-22T06:58:24.041Z,6.10
2019-05-22T07:00:52.976Z,6.43
2019-05-22T07:03:23.034Z,6.87
2019-05-22T07:05:53.449Z,6.30
2019-05-22T07:08:23.106Z,5.03
2019-05-22T07:10:52.185Z,6.60
2019-05-22T07:13:22.167Z,5.63
2019-05-22T07:15:52.231Z,6.57
2019-05-22T07:18:22.634Z,6.10
2019-05-22T07:20:52.991Z,6.47
2019-05-22T07:23:23.553Z,6.10
2019-05-22T07:25:52.779Z,5.37
2019-05-22T07:28:23.397Z,5.13
2019-05-22T07:30:52.647Z,4.70
2019-05-22T07:33:22.937Z,5.43
2019-05-22T07:36:08.600Z,5.37
2019-05-22T07:38:22.726Z,4.67
2019-05-22T07:40:53.019Z,5.63
2019-05-22T07:43:22.478Z,5.07
2019-05-22T07:45:52.787Z,5.03
2019-05-22T07:48:23.512Z,6.13
2019-05-22T07:50:54.205Z,5.13
2019-05-22T07:53:24.751Z,5.30
2019-05-22T07:55:55.223Z,5.17
2019-05-22T07:58:25.844Z,5.27
2019-05-22T08:00:56.692Z,5.20
2019-05-22T08:03:26.105Z,6.20
2019-05-22T08:05:56.456Z,5.43
2019-05-22T08:08:26.579Z,4.87
2019-05-22T08:10:57.105Z,5.70
2019-05-22T08:13:27.096Z,5.13
2019-05-22T08:15:56.250Z,4.60
2019-05-22T08:18:27.087Z,7.00
2019-05-22T08:20:56.397Z,6.50
2019-05-22T08:23:26.838Z,6.57
2019-05-22T08:25:58.550Z,5.07
2019-05-22T08:28:29.716Z,5.00
2019-05-22T08:30:59.509Z,5.07
2019-05-22T08:33:29.173Z,5.57
2019-05-22T08:35:58.646Z,4.87
2019-05-22T08:38:30.044Z,5.13
2019-05-22T08:41:01.215Z,6.17
2019-05-22T08:43:31.103Z,5.50
2019-05-22T08:46:00.904Z,5.47
2019-05-22T08:48:31.429Z,5.03
2019-05-22T08:51:01.325Z,6.40
2019-05-22T08:53:44.382Z,5.40
2019-05-22T08:56:01.131Z,5.40
2019-05-22T08:58:30.199Z,6.13
2019-05-22T09:00:59.197Z,19.30
2019-05-22T09:03:28.546Z,5.43
2019-05-22T09:05:57.400Z,12.13
2019-05-22T09:08:26.424Z,7.50
2019-05-22T09:10:55.246Z,7.40
2019-05-22T09:13:24.068Z,6.57
2019-05-22T09:15:53.722Z,7.00
2019-05-22T09:18:22.680Z,6.90
2019-05-22T09:20:52.069Z,7.27
2019-05-22T09:23:21.186Z,6.77
2019-05-22T09:25:50.302Z,6.93
2019-05-22T09:28:19.458Z,7.10
2019-05-22T09:30:48.317Z,5.63
2019-05-22T09:33:18.616Z,6.93
2019-05-22T09:35:48.862Z,6.73
2019-05-22T09:38:17.792Z,6.80
2019-05-22T09:40:46.910Z,5.93
2019-05-22T09:43:15.677Z,6.50
2019-05-22T09:45:44.345Z,6.50
2019-05-22T09:48:13.469Z,6.33
2019-05-22T09:50:42.320Z,5.70
2019-05-22T09:53:11.356Z,6.50
2019-05-22T09:55:40.223Z,6.20
2019-05-22T09:58:08.969Z,5.50
2019-05-22T10:00:38.083Z,4.97
2019-05-22T10:03:07.076Z,4.90
2019-05-22T10:05:36.090Z,7.33
2019-05-22T10:08:05.513Z,4.90
2019-05-22T10:10:34.391Z,5.67
2019-05-22T10:13:03.605Z,5.67
2019-05-22T10:15:33.006Z,6.00
2019-05-22T10:18:01.814Z,5.20
2019-05-22T10:20:30.600Z,6.17
2019-05-22T10:23:14.010Z,4.20
2019-05-22T10:25:29.909Z,6.13
2019-05-22T10:27:59.501Z,4.40
2019-05-22T10:30:28.565Z,4.30
2019-05-22T10:32:57.184Z,4.90
2019-05-22T10:35:27.533Z,5.07
2019-05-22T10:37:56.833Z,5.67
2019-05-22T10:40:26.071Z,10.17
2019-05-22T10:42:54.876Z,5.00
2019-05-22T10:45:23.726Z,5.90
2019-05-22T10:47:52.481Z,5.83
2019-05-22T10:50:21.629Z,5.43
2019-05-22T10:52:54.681Z,5.43
2019-05-22T10:55:22.884Z,5.80
2019-05-22T10:57:51.854Z,5.00
2019-05-22T11:00:21.882Z,5.30
2019-05-22T11:02:50.652Z,5.33
2019-05-22T11:05:20.808Z,6.30
2019-05-22T11:07:50.476Z,6.37
2019-05-22T11:10:22.442Z,6.40
2019-05-22T11:12:51.850Z,7.47
2019-05-22T11:15:22.166Z,7.60
2019-05-22T11:17:52.169Z,6.70
2019-05-22T11:20:21.169Z,6.70
2019-05-22T11:22:50.145Z,6.20
2019-05-22T11:25:19.721Z,8.20
2019-05-22T11:27:48.651Z,8.50
2019-05-22T11:30:17.543Z,8.07
2019-05-22T11:32:46.601Z,8.90
2019-05-22T11:35:16.137Z,8.30
2019-05-22T11:37:45.219Z,9.50
2019-05-22T11:40:15.441Z,9.37
2019-05-22T11:42:44.250Z,8.60
2019-05-22T11:45:14.647Z,9.30
2019-05-22T11:47:43.391Z,10.93
2019-05-22T11:50:16.906Z,10.30
2019-05-22T11:52:46.722Z,10.50
2019-05-22T11:55:16.709Z,11.13
2019-05-22T11:57:47.034Z,13.70
2019-05-22T12:00:18.560Z,14.40
2019-05-22T12:02:47.896Z,15.13
2019-05-22T12:05:18.839Z,14.50
2019-05-22T12:07:48.740Z,15.87
2019-05-22T12:10:19.691Z,15.30
2019-05-22T12:12:51.574Z,17.37
2019-05-22T12:15:25.049Z,18.03
2019-05-22T12:17:54.812Z,17.33
2019-05-22T12:20:25.199Z,16.33
2019-05-22T12:22:54.220Z,16.17
2019-05-22T12:25:23.846Z,18.40
2019-05-22T12:27:53.213Z,17.97
2019-05-22T12:30:23.654Z,15.80
2019-05-22T12:32:52.924Z,16.37
2019-05-22T12:35:22.052Z,14.60
2019-05-22T12:37:50.917Z,15.80
2019-05-22T12:40:21.973Z,16.67
2019-05-22T12:42:51.833Z,17.57
2019-05-22T12:45:25.880Z,16.57
2019-05-22T12:47:55.047Z,15.17
2019-05-22T12:50:27.327Z,16.13
2019-05-22T12:52:57.051Z,17.30
2019-05-22T12:55:25.976Z,15.00
2019-05-22T12:57:54.839Z,15.20
2019-05-22T13:00:25.905Z,16.60
2019-05-22T13:02:56.936Z,16.47
2019-05-22T13:05:26.500Z,14.67
2019-05-22T13:07:57.136Z,17.00
2019-05-22T13:10:27.729Z,16.17
2019-05-22T13:12:57.198Z,15.43
2019-05-22T13:15:26.687Z,15.70
2019-05-22T13:17:55.674Z,14.30
2019-05-22T13:20:42.111Z,17.00
2019-05-22T13:22:58.079Z,15.93
2019-05-22T13:25:31.150Z,15.53
2019-05-22T13:28:02.538Z,15.10
2019-05-22T13:30:34.346Z,16.97
2019-05-22T13:33:04.981Z,15.53
2019-05-22T13:35:35.028Z,15.63
2019-05-22T13:38:05.437Z,16.57
2019-05-22T13:40:34.599Z,16.80
2019-05-22T13:43:04.197Z,16.17
2019-05-22T13:45:33.644Z,17.30
2019-05-22T13:48:02.772Z,17.10
2019-05-22T13:50:32.019Z,17.87
2019-05-22T13:53:02.874Z,18.20
2019-05-22T13:55:33.338Z,17.43
2019-05-22T13:58:02.541Z,17.07
2019-05-22T14:00:31.402Z,18.83
2019-05-22T14:03:00.761Z,16.70
2019-05-22T14:05:31.076Z,17.50
2019-05-22T14:08:00.671Z,19.07
2019-05-22T14:10:30.492Z,18.50
2019-05-22T14:12:59.502Z,18.43
2019-05-22T14:15:47.288Z,14.60
2019-05-22T14:17:59.846Z,18.40
2019-05-22T14:20:29.261Z,17.00
2019-05-22T14:22:58.236Z,16.60
2019-05-22T14:25:28.040Z,16.97
2019-05-22T14:27:56.875Z,17.50
2019-05-22T14:30:28.285Z,16.17
2019-05-22T14:33:03.944Z,16.80
2019-05-22T14:35:47.086Z,16.50
2019-05-22T14:38:04.402Z,16.57
2019-05-22T14:40:33.550Z,15.70
2019-05-22T14:43:02.580Z,14.83
2019-05-22T14:45:31.560Z,14.80
2019-05-22T14:48:00.314Z,15.67
2019-05-22T14:50:32.790Z,16.90
2019-05-22T14:53:00.872Z,15.97
2019-05-22T14:55:32.294Z,15.63
2019-05-22T14:58:01.604Z,15.40
2019-05-22T15:00:31.078Z,14.93
2019-05-22T15:02:59.951Z,14.60
2019-05-22T15:05:29.539Z,16.10
2019-05-22T15:07:58.358Z,14.70
2019-05-22T15:10:27.674Z,14.60
2019-05-22T15:12:56.873Z,14.20
2019-05-22T15:15:26.099Z,15.10
2019-05-22T15:17:55.166Z,14.77
2019-05-22T15:20:27.804Z,13.87
2019-05-22T15:22:57.074Z,14.53
2019-05-22T15:25:27.453Z,15.70
2019-05-22T15:27:56.907Z,14.53
2019-05-22T15:30:25.829Z,14.33
2019-05-22T15:32:54.766Z,14.90
2019-05-22T15:35:24.190Z,13.50
2019-05-22T15:37:53.919Z,13.70
2019-05-22T15:40:24.234Z,14.23
2019-05-22T15:42:53.508Z,14.03
2019-05-22T15:45:25.702Z,13.17
2019-05-22T15:47:57.476Z,14.33
2019-05-22T15:50:33.310Z,12.90
2019-05-22T15:53:06.262Z,13.80
2019-05-22T15:55:36.553Z,12.20
2019-05-22T15:58:06.205Z,13.33
2019-05-22T16:00:37.522Z,12.63
2019-05-22T16:03:11.974Z,13.53
2019-05-22T16:05:41.551Z,12.33
2019-05-22T16:08:10.814Z,12.70
2019-05-22T16:10:41.248Z,12.43
2019-05-22T16:13:12.603Z,13.47
2019-05-22T16:15:44.041Z,13.07
2019-05-22T16:18:13.765Z,12.07
2019-05-22T16:20:44.220Z,11.83
2019-05-22T16:23:13.135Z,11.87
2019-05-22T16:25:43.285Z,12.10
2019-05-22T16:28:13.919Z,11.23
2019-05-22T16:30:44.012Z,11.60
2019-05-22T16:33:14.003Z,10.97
2019-05-22T16:35:43.244Z,12.17
2019-05-22T16:38:12.184Z,10.97
2019-05-22T16:40:43.711Z,11.30
2019-05-22T16:43:12.919Z,10.70
2019-05-22T16:45:43.420Z,10.30
2019-05-22T16:48:27.819Z,10.47
2019-05-22T16:50:44.869Z,10.00
2019-05-22T16:53:14.368Z,9.40
2019-05-22T16:55:44.073Z,10.50
2019-05-22T16:58:13.388Z,9.30
2019-05-22T17:00:44.115Z,9.53
2019-05-22T17:03:15.931Z,9.20
2019-05-22T17:05:45.167Z,10.00
2019-05-22T17:08:15.014Z,8.13
2019-05-22T17:10:45.052Z,9.57
2019-05-22T17:13:15.697Z,9.60
2019-05-22T17:15:45.478Z,9.53
2019-05-22T17:18:17.332Z,9.80
2019-05-22T17:20:47.494Z,9.33
2019-05-22T17:23:17.010Z,10.40
2019-05-22T17:25:46.737Z,11.20
2019-05-22T17:28:17.360Z,9.47
2019-05-22T17:30:47.067Z,9.30
2019-05-22T17:33:15.910Z,10.90
2019-05-22T17:35:44.832Z,8.80
2019-05-22T17:38:14.397Z,8.20
2019-05-22T17:40:43.605Z,7.40
2019-05-22T17:43:13.365Z,8.47
2019-05-22T17:45:44.762Z,8.80
2019-05-22T17:48:16.154Z,8.47
2019-05-22T17:50:46.401Z,7.80
2019-05-22T17:53:16.242Z,8.10
2019-05-22T17:55:45.579Z,7.20
2019-05-22T17:58:14.622Z,7.77
2019-05-22T18:00:48.082Z,7.53
2019-05-22T18:03:17.693Z,7.90
2019-05-22T18:05:47.818Z,6.37
2019-05-22T18:08:16.741Z,6.90
2019-05-22T18:10:48.619Z,5.97
2019-05-22T18:13:17.377Z,5.80
2019-05-22T18:15:46.964Z,6.40
2019-05-22T18:18:16.249Z,6.27
2019-05-22T18:20:45.426Z,5.20
2019-05-22T18:23:14.275Z,5.47
2019-05-22T18:25:45.146Z,5.57
2019-05-22T18:28:14.308Z,5.93
2019-05-22T18:30:43.809Z,4.93
2019-05-22T18:33:13.851Z,4.80
2019-05-22T18:35:42.522Z,5.63
2019-05-22T18:38:11.417Z,5.20
2019-05-22T18:40:42.228Z,5.10
2019-05-22T18:43:11.630Z,5.43
2019-05-22T18:45:40.481Z,5.27
2019-05-22T18:48:09.756Z,5.33
2019-05-22T18:50:38.602Z,5.00
2019-05-22T18:53:07.759Z,6.30
2019-05-22T18:55:36.550Z,7.90
2019-05-22T18:58:05.269Z,6.10
2019-05-22T19:00:34.080Z,5.87
2019-05-22T19:03:03.358Z,5.47
2019-05-22T19:05:33.630Z,5.33
2019-05-22T19:08:04.385Z,4.70
2019-05-22T19:10:33.569Z,4.67
2019-05-22T19:13:02.823Z,6.90
2019-05-22T19:15:32.510Z,7.10
2019-05-22T19:18:01.728Z,7.00
2019-05-22T19:20:30.764Z,4.53
2019-05-22T19:23:01.515Z,5.37
2019-05-22T19:25:30.044Z,6.53
2019-05-22T19:27:58.761Z,5.30
2019-05-22T19:30:28.052Z,4.73
2019-05-22T19:32:57.010Z,6.30
2019-05-22T19:35:25.710Z,5.13
2019-05-22T19:37:54.953Z,5.00
2019-05-22T19:40:23.780Z,4.63
2019-05-22T19:42:52.656Z,6.00
2019-05-22T19:45:21.498Z,4.63
2019-05-22T19:47:52.902Z,3.93
2019-05-22T19:50:23.862Z,4.80
2019-05-22T19:52:54.830Z,4.50
2019-05-22T19:55:26.596Z,4.13
2019-05-22T19:57:56.113Z,5.00
2019-05-22T20:00:25.630Z,3.73
2019-05-22T20:02:55.493Z,4.13
2019-05-22T20:05:25.346Z,4.03
2019-05-22T20:07:54.824Z,4.97
2019-05-22T20:10:24.317Z,4.50
2019-05-22T20:12:53.556Z,5.63
2019-05-22T20:15:24.894Z,6.37
2019-05-22T20:17:54.310Z,5.80
2019-05-22T20:20:24.404Z,7.40
2019-05-22T20:22:53.226Z,11.13
2019-05-22T20:25:22.886Z,5.03
2019-05-22T20:27:53.077Z,3.90
2019-05-22T20:30:22.870Z,4.43
2019-05-22T20:32:51.664Z,4.37
2019-05-22T20:35:20.924Z,4.83
2019-05-22T20:37:49.736Z,5.17
2019-05-22T20:40:20.327Z,4.70
2019-05-22T20:42:50.562Z,4.50
2019-05-22T20:45:21.807Z,3.80
2019-05-22T20:47:55.132Z,4.63
2019-05-22T20:50:27.938Z,4.10
2019-05-22T20:52:56.697Z,5.07
2019-05-22T20:55:25.389Z,3.87
2019-05-22T20:57:54.739Z,4.17
2019-05-22T21:00:25.799Z,3.77
2019-05-22T21:03:00.998Z,4.37
2019-05-22T21:05:30.452Z,4.60
2019-05-22T21:08:02.207Z,4.00
2019-05-22T21:10:32.044Z,3.77
2019-05-22T21:13:02.951Z,4.00
2019-05-22T21:15:33.428Z,4.10
2019-05-22T21:18:03.127Z,4.63
2019-05-22T21:20:32.630Z,4.70
2019-05-22T21:23:01.952Z,4.50
2019-05-22T21:25:30.995Z,4.50
2019-05-22T21:28:01.225Z,4.07
2019-05-22T21:30:29.907Z,4.80
2019-05-22T21:32:59.040Z,4.40
2019-05-22T21:35:28.373Z,4.20
2019-05-22T21:37:58.479Z,4.80
2019-05-22T21:40:28.057Z,4.23
2019-05-22T21:42:57.133Z,4.60
2019-05-22T21:45:26.750Z,5.50
2019-05-22T21:47:56.092Z,3.90
2019-05-22T21:50:25.130Z,3.70
2019-05-22T21:52:54.163Z,4.53
2019-05-22T21:55:24.142Z,4.83
2019-05-22T21:57:53.365Z,4.70
2019-05-22T22:00:26.864Z,6.40
2019-05-22T22:02:57.214Z,5.30
2019-05-22T22:05:26.392Z,4.50
2019-05-22T22:07:55.644Z,6.43
2019-05-22T22:10:24.552Z,5.30
2019-05-22T22:12:53.540Z,4.83
2019-05-22T22:15:22.431Z,5.23
2019-05-22T22:17:52.113Z,4.10
2019-05-22T22:20:21.848Z,5.00
2019-05-22T22:22:51.516Z,5.47
2019-05-22T22:25:22.191Z,4.90
2019-05-22T22:27:50.808Z,4.40
2019-05-22T22:30:23.873Z,4.57
2019-05-22T22:32:53.307Z,4.10
2019-05-22T22:35:22.712Z,4.50
2019-05-22T22:37:51.736Z,4.60
2019-05-22T22:40:24.289Z,5.90
2019-05-22T22:42:54.419Z,4.77
2019-05-22T22:45:39.056Z,4.03
2019-05-22T22:48:08.006Z,4.47
2019-05-22T22:50:38.672Z,4.37
2019-05-22T22:53:08.019Z,5.07
2019-05-22T22:55:39.384Z,4.63
2019-05-22T22:58:17.303Z,3.80
2019-05-22T23:00:40.777Z,5.13
2019-05-22T23:03:12.977Z,4.80
2019-05-22T23:05:44.598Z,5.17
2019-05-22T23:08:16.963Z,4.60
2019-05-22T23:10:46.206Z,5.63
2019-05-22T23:13:16.025Z,4.67
2019-05-22T23:15:46.474Z,5.50
2019-05-22T23:18:36.036Z,4.77
2019-05-22T23:21:04.953Z,4.30
2019-05-22T23:23:33.132Z,4.17
2019-05-22T23:26:02.742Z,4.43
2019-05-22T23:28:34.527Z,3.97
2019-05-22T23:31:02.483Z,3.77
2019-05-22T23:33:31.331Z,4.40
2019-05-22T23:36:01.801Z,4.30
2019-05-22T23:38:32.476Z,4.47
2019-05-22T23:41:01.822Z,4.10
2019-05-22T23:43:30.507Z,4.93
2019-05-22T23:46:00.637Z,5.30
2019-05-22T23:48:30.421Z,4.10
2019-05-22T23:50:59.645Z,4.40
2019-05-22T23:53:29.912Z,3.47
2019-05-22T23:55:59.001Z,4.10
2019-05-22T23:58:27.941Z,4.10
